createdAt,value
2023-03-20T00:02:26.587Z,8.20
2023-03-20T00:04:55.182Z,8.67
2023-03-20T00:07:23.766Z,8.53
2023-03-20T00:09:53.736Z,9.43
2023-03-20T00:12:27.211Z,9.17
2023-03-20T00:14:55.872Z,9.77
2023-03-20T00:17:24.602Z,9.87
2023-03-20T00:19:53.090Z,9.57
2023-03-20T00:22:22.583Z,9.73
2023-03-20T00:24:51.596Z,10.07
2023-03-20T00:27:21.660Z,9.07
2023-03-20T00:29:50.418Z,9.60
2023-03-20T00:32:18.988Z,9.07
2023-03-20T00:34:47.560Z,9.07
2023-03-20T00:37:16.605Z,9.60
2023-03-20T00:39:45.289Z,9.50
2023-03-20T00:42:21.198Z,9.43
2023-03-20T00:44:54.418Z,9.07
2023-03-20T00:48:43.450Z,8.63
2023-03-20T00:51:12.005Z,9.00
2023-03-20T00:53:40.621Z,9.80
2023-03-20T00:56:32.873Z,9.10
2023-03-20T00:59:03.835Z,10.17
2023-03-20T01:01:34.109Z,9.87
2023-03-20T01:04:02.652Z,9.87
2023-03-20T01:06:31.560Z,8.93
2023-03-20T01:09:00.219Z,8.97
2023-03-20T01:11:29.395Z,9.43
2023-03-20T01:13:57.953Z,9.40
2023-03-20T01:16:28.368Z,8.90
2023-03-20T01:18:58.480Z,9.30
2023-03-20T01:21:27.026Z,9.20
2023-03-20T01:23:55.670Z,9.00
2023-03-20T01:26:29.031Z,8.13
2023-03-20T01:28:57.632Z,8.47
2023-03-20T01:31:26.822Z,8.20
2023-03-20T01:33:55.676Z,8.03
2023-03-20T01:36:25.973Z,9.17
2023-03-20T01:38:57.388Z,9.37
2023-03-20T01:41:27.769Z,10.30
2023-03-20T01:43:56.982Z,10.67
2023-03-20T01:46:30.078Z,10.37
2023-03-20T01:49:30.664Z,10.67
2023-03-20T01:52:05.516Z,10.23
2023-03-20T01:54:37.453Z,9.77
2023-03-20T01:57:16.323Z,10.00
2023-03-20T01:59:48.801Z,9.40
2023-03-20T02:02:20.956Z,10.00
2023-03-20T02:04:53.929Z,11.13
2023-03-20T02:07:25.654Z,10.33
2023-03-20T02:10:02.404Z,10.00
2023-03-20T02:12:41.498Z,9.70
2023-03-20T02:15:16.457Z,11.67
2023-03-20T02:17:59.259Z,10.93
2023-03-20T02:20:47.002Z,11.10
2023-03-20T02:23:48.704Z,11.07
2023-03-20T02:27:12.926Z,12.00
2023-03-20T02:30:11.640Z,11.10
2023-03-20T02:33:24.295Z,10.47
2023-03-20T02:36:34.877Z,9.97
2023-03-20T02:39:22.907Z,10.30
2023-03-20T02:41:58.570Z,10.37
2023-03-20T02:44:32.872Z,9.70
2023-03-20T02:47:09.324Z,9.77
2023-03-20T02:49:54.800Z,9.77
2023-03-20T02:52:33.605Z,10.30
2023-03-20T02:55:14.044Z,9.57
2023-03-20T02:57:49.298Z,9.00
2023-03-20T03:00:28.548Z,8.50
2023-03-20T03:03:05.520Z,8.23
2023-03-20T03:05:39.369Z,8.00
2023-03-20T03:08:13.787Z,8.00
2023-03-20T03:10:46.898Z,9.23
2023-03-20T03:13:20.060Z,10.07
2023-03-20T03:15:51.533Z,10.50
2023-03-20T03:18:24.227Z,11.20
2023-03-20T03:20:57.785Z,11.27
2023-03-20T03:23:33.246Z,10.53
2023-03-20T03:26:06.879Z,10.77
2023-03-20T03:28:39.233Z,10.13
2023-03-20T03:31:10.528Z,9.80
2023-03-20T03:33:42.223Z,9.70
2023-03-20T03:36:18.947Z,9.30
2023-03-20T03:38:55.636Z,9.90
2023-03-20T03:41:30.604Z,9.60
2023-03-20T03:44:08.034Z,9.50
2023-03-20T03:46:44.544Z,9.70
2023-03-20T03:49:18.846Z,10.30
2023-03-20T03:51:50.783Z,10.23
2023-03-20T03:54:22.405Z,9.37
2023-03-20T03:57:16.339Z,9.30
2023-03-20T03:59:48.817Z,9.53
2023-03-20T04:02:20.559Z,9.83
2023-03-20T04:04:53.049Z,9.93
2023-03-20T04:07:22.621Z,11.47
2023-03-20T04:09:51.281Z,11.53
2023-03-20T04:12:40.127Z,11.63
2023-03-20T04:15:12.475Z,12.03
2023-03-20T04:17:42.038Z,12.23
2023-03-20T04:20:13.042Z,12.10
2023-03-20T04:22:41.850Z,13.50
2023-03-20T04:25:18.927Z,13.60
2023-03-20T04:27:49.389Z,14.67
2023-03-20T04:30:25.987Z,14.53
2023-03-20T04:33:13.250Z,14.70
2023-03-20T04:35:57.521Z,15.37
2023-03-20T04:38:26.485Z,17.00
2023-03-20T04:40:56.738Z,17.23
2023-03-20T04:43:27.235Z,17.43
2023-03-20T04:45:55.935Z,19.07
2023-03-20T04:48:24.724Z,18.97
2023-03-20T04:50:55.744Z,18.33
2023-03-20T04:53:30.632Z,18.37
2023-03-20T04:56:01.853Z,18.10
2023-03-20T04:58:36.013Z,18.77
2023-03-20T05:01:05.468Z,19.23
2023-03-20T05:03:35.485Z,18.27
2023-03-20T05:06:04.227Z,18.43
2023-03-20T05:08:33.114Z,19.23
2023-03-20T05:11:02.706Z,17.77
2023-03-20T05:14:08.222Z,17.47
2023-03-20T05:16:45.474Z,15.47
2023-03-20T05:19:49.993Z,13.83
2023-03-20T05:22:37.744Z,13.47
2023-03-20T05:25:18.545Z,13.13
2023-03-20T05:28:05.313Z,14.43
2023-03-20T05:30:55.768Z,14.20
2023-03-20T05:33:50.475Z,14.17
2023-03-20T05:36:38.460Z,13.43
2023-03-20T05:39:30.089Z,14.90
2023-03-20T05:42:27.879Z,15.03
2023-03-20T05:45:17.932Z,14.73
2023-03-20T05:47:56.468Z,14.10
2023-03-20T05:50:43.750Z,13.73
2023-03-20T05:53:41.249Z,11.93
2023-03-20T05:56:45.238Z,11.73
2023-03-20T05:59:40.035Z,12.20
2023-03-20T06:02:31.186Z,12.30
2023-03-20T06:05:11.600Z,12.77
2023-03-20T06:07:48.875Z,13.27
2023-03-20T06:10:20.107Z,13.73
2023-03-20T06:12:50.233Z,14.17
2023-03-20T06:15:20.947Z,14.30
2023-03-20T06:17:57.173Z,14.77
2023-03-20T06:20:27.911Z,16.20
2023-03-20T06:23:01.802Z,16.33
2023-03-20T06:25:30.613Z,14.60
2023-03-20T06:27:59.690Z,15.80
2023-03-20T06:30:29.649Z,15.30
2023-03-20T06:32:58.356Z,15.23
2023-03-20T06:35:36.380Z,15.30
2023-03-20T06:38:05.157Z,13.53
2023-03-20T06:40:34.493Z,14.43
2023-03-20T06:43:03.710Z,13.67
2023-03-20T06:45:44.841Z,14.30
2023-03-20T06:48:22.313Z,13.93
2023-03-20T06:50:53.922Z,14.53
2023-03-20T06:53:27.260Z,14.47
2023-03-20T06:56:18.086Z,15.37
2023-03-20T06:58:47.584Z,15.23
2023-03-20T07:01:20.037Z,13.57
2023-03-20T07:03:49.182Z,14.30
2023-03-20T07:06:24.374Z,14.03
2023-03-20T07:08:53.759Z,14.43
2023-03-20T07:11:23.244Z,14.83
2023-03-20T07:14:25.189Z,14.33
2023-03-20T07:17:00.539Z,14.27
2023-03-20T07:19:29.324Z,14.33
2023-03-20T07:22:03.777Z,14.27
2023-03-20T07:24:38.567Z,14.23
2023-03-20T07:27:07.411Z,14.03
2023-03-20T07:29:37.321Z,14.80
2023-03-20T07:32:16.616Z,14.37
2023-03-20T07:34:50.640Z,14.73
2023-03-20T07:37:23.239Z,15.50
2023-03-20T07:40:04.749Z,13.97
2023-03-20T07:42:47.541Z,13.50
2023-03-20T07:45:34.113Z,12.77
2023-03-20T07:48:02.974Z,14.10
2023-03-20T07:50:32.148Z,13.50
2023-03-20T07:53:02.630Z,13.40
2023-03-20T07:55:31.291Z,12.87
2023-03-20T07:58:00.142Z,13.27
2023-03-20T08:00:28.740Z,12.30
2023-03-20T08:02:58.347Z,13.27
2023-03-20T08:05:27.554Z,12.20
2023-03-20T08:07:56.516Z,12.97
2023-03-20T08:10:26.769Z,11.73
2023-03-20T08:12:56.068Z,11.53
2023-03-20T08:15:24.853Z,11.80
2023-03-20T08:17:53.579Z,11.90
2023-03-20T08:20:22.416Z,11.13
2023-03-20T08:22:51.036Z,10.93
2023-03-20T08:25:19.978Z,10.40
2023-03-20T08:27:50.928Z,9.80
2023-03-20T08:30:19.565Z,9.63
2023-03-20T08:32:48.336Z,9.83
2023-03-20T08:35:32.139Z,9.37
2023-03-20T08:38:05.966Z,8.97
2023-03-20T08:40:34.778Z,8.80
2023-03-20T08:43:05.666Z,8.37
2023-03-20T08:45:34.447Z,8.50
2023-03-20T08:48:03.872Z,8.30
2023-03-20T08:50:33.062Z,8.20
2023-03-20T08:53:01.620Z,8.07
2023-03-20T08:55:30.282Z,7.90
2023-03-20T08:57:59.298Z,7.53
2023-03-20T09:00:29.453Z,7.53
2023-03-20T09:02:58.086Z,8.03
2023-03-20T09:05:26.716Z,7.20
2023-03-20T09:07:55.413Z,7.30
2023-03-20T09:10:24.162Z,7.20
2023-03-20T09:12:52.751Z,7.33
2023-03-20T09:15:21.437Z,6.70
2023-03-20T09:17:51.694Z,7.07
2023-03-20T09:20:20.311Z,7.30
2023-03-20T09:22:49.100Z,7.43
2023-03-20T09:25:17.776Z,6.47
2023-03-20T09:27:46.608Z,6.68
2023-03-20T09:30:15.969Z,6.72
2023-03-20T09:32:44.567Z,7.00
2023-03-20T09:35:14.534Z,6.60
2023-03-20T09:37:43.268Z,6.72
2023-03-20T09:40:24.508Z,6.65
2023-03-20T09:42:59.990Z,6.47
2023-03-20T09:45:42.054Z,6.15
2023-03-20T09:48:19.850Z,5.50
2023-03-20T09:50:57.716Z,6.40
2023-03-20T09:53:31.166Z,6.40
2023-03-20T09:56:00.915Z,6.00
2023-03-20T09:58:34.227Z,6.23
2023-03-20T10:01:05.579Z,6.30
2023-03-20T10:03:43.748Z,6.57
2023-03-20T10:06:17.255Z,7.07
2023-03-20T10:08:47.339Z,6.60
2023-03-20T10:11:43.064Z,6.47
2023-03-20T10:14:22.888Z,6.18
2023-03-20T10:17:05.316Z,6.82
2023-03-20T10:19:37.868Z,6.20
2023-03-20T10:22:18.634Z,6.35
2023-03-20T10:24:53.984Z,6.00
2023-03-20T10:27:28.205Z,5.83
2023-03-20T10:30:09.918Z,6.07
2023-03-20T10:32:43.715Z,6.25
2023-03-20T10:35:22.183Z,6.07
2023-03-20T10:38:16.586Z,5.97
2023-03-20T10:40:45.614Z,5.68
2023-03-20T10:43:20.154Z,5.72
2023-03-20T10:45:52.344Z,5.85
2023-03-20T10:48:28.230Z,5.13
2023-03-20T10:50:58.554Z,5.93
2023-03-20T10:53:33.357Z,5.50
2023-03-20T10:56:06.462Z,5.40
2023-03-20T10:58:40.040Z,5.32
2023-03-20T11:01:09.249Z,4.85
2023-03-20T11:03:40.059Z,5.68
2023-03-20T11:06:17.507Z,5.00
2023-03-20T11:08:52.223Z,5.10
2023-03-20T11:11:26.029Z,4.60
2023-03-20T11:13:54.869Z,4.97
2023-03-20T11:16:25.745Z,5.22
2023-03-20T11:19:23.987Z,5.03
2023-03-20T11:21:57.065Z,4.85
2023-03-20T11:24:38.007Z,4.90
2023-03-20T11:27:09.572Z,4.97
2023-03-20T11:29:39.412Z,5.10
2023-03-20T11:33:02.022Z,4.70
2023-03-20T11:35:32.604Z,5.15
2023-03-20T11:38:12.063Z,5.25
2023-03-20T11:40:42.548Z,4.97
2023-03-20T11:43:13.867Z,4.75
2023-03-20T11:45:45.433Z,5.60
2023-03-20T11:48:20.542Z,5.43
2023-03-20T11:51:04.080Z,4.75
2023-03-20T11:53:35.816Z,5.07
2023-03-20T11:56:11.106Z,5.80
2023-03-20T11:58:50.043Z,5.60
2023-03-20T12:01:18.759Z,5.60
2023-03-20T12:03:55.594Z,6.00
2023-03-20T12:06:27.316Z,5.70
2023-03-20T12:09:02.211Z,6.20
2023-03-20T12:11:46.771Z,6.10
2023-03-20T12:14:23.933Z,5.95
2023-03-20T12:16:57.816Z,6.30
2023-03-20T12:19:31.416Z,7.03
2023-03-20T12:22:08.856Z,6.60
2023-03-20T12:24:42.979Z,6.00
2023-03-20T12:27:22.592Z,6.60
2023-03-20T12:29:55.092Z,6.15
2023-03-20T12:32:29.634Z,5.97
2023-03-20T12:35:01.036Z,6.40
2023-03-20T12:37:29.788Z,6.22
2023-03-20T12:40:01.638Z,6.43
2023-03-20T12:42:41.902Z,6.65
2023-03-20T12:45:14.818Z,6.35
2023-03-20T12:47:56.289Z,6.47
2023-03-20T12:50:32.350Z,6.03
2023-03-20T12:53:19.764Z,6.32
2023-03-20T12:56:00.687Z,6.20
2023-03-20T12:58:42.408Z,5.78
2023-03-20T13:01:19.247Z,6.25
2023-03-20T13:04:12.132Z,6.50
2023-03-20T13:06:52.265Z,5.90
2023-03-20T13:09:49.165Z,6.53
2023-03-20T13:12:27.816Z,6.07
2023-03-20T13:15:08.680Z,6.35
2023-03-20T13:17:42.438Z,6.53
2023-03-20T13:20:32.302Z,5.60
2023-03-20T13:23:15.049Z,5.93
2023-03-20T13:25:54.953Z,6.07
2023-03-20T13:28:35.263Z,5.38
2023-03-20T13:31:17.271Z,5.03
2023-03-20T13:33:52.286Z,5.40
2023-03-20T13:36:30.772Z,5.05
2023-03-20T13:39:04.336Z,4.97
2023-03-20T13:41:37.679Z,5.50
2023-03-20T13:44:10.638Z,5.43
2023-03-20T13:46:45.422Z,5.50
2023-03-20T13:49:21.046Z,5.10
2023-03-20T13:51:55.034Z,5.18
2023-03-20T13:54:48.023Z,5.10
2023-03-20T13:57:28.966Z,5.47
2023-03-20T14:00:08.293Z,5.10
2023-03-20T14:02:53.835Z,4.95
2023-03-20T14:05:26.678Z,4.97
2023-03-20T14:07:58.292Z,5.00
2023-03-20T14:10:40.150Z,6.07
2023-03-20T14:13:16.516Z,5.38
2023-03-20T14:15:56.557Z,5.95
2023-03-20T14:18:27.650Z,5.53
2023-03-20T14:20:59.057Z,5.78
2023-03-20T14:23:36.287Z,6.00
2023-03-20T14:26:11.314Z,6.57
2023-03-20T14:28:54.274Z,5.90
2023-03-20T14:31:26.827Z,5.95
2023-03-20T14:34:01.888Z,5.97
2023-03-20T14:36:43.029Z,6.22
2023-03-20T14:39:24.202Z,5.93
2023-03-20T14:42:03.982Z,6.30
2023-03-20T14:44:48.786Z,6.57
2023-03-20T14:47:29.954Z,6.57
2023-03-20T14:50:08.442Z,6.47
2023-03-20T14:52:51.618Z,6.57
2023-03-20T14:55:35.532Z,6.47
2023-03-20T14:58:32.952Z,6.70
2023-03-20T15:01:35.639Z,6.00
2023-03-20T15:04:14.429Z,7.00
2023-03-20T15:06:49.829Z,6.57
2023-03-20T15:09:20.578Z,6.38
2023-03-20T15:11:49.893Z,7.03
2023-03-20T15:14:23.077Z,6.93
2023-03-20T15:20:18.190Z,7.60
2023-03-20T15:22:52.703Z,7.05
2023-03-20T15:25:24.596Z,7.20
2023-03-20T15:27:53.652Z,7.18
2023-03-20T15:30:24.148Z,6.85
2023-03-20T15:32:56.328Z,6.63
2023-03-20T15:35:28.067Z,6.80
2023-03-20T15:38:05.702Z,6.33
2023-03-20T15:40:49.987Z,7.47
2023-03-20T15:43:22.745Z,7.13
2023-03-20T15:46:02.953Z,6.53
2023-03-20T15:48:35.681Z,7.55
2023-03-20T15:51:06.162Z,7.00
2023-03-20T15:53:39.172Z,7.25
2023-03-20T15:57:03.544Z,7.28
2023-03-20T15:59:35.763Z,7.40
2023-03-20T16:02:13.432Z,7.83
2023-03-20T16:04:47.751Z,7.80
2023-03-20T16:07:22.900Z,7.77
2023-03-20T16:09:53.199Z,8.17
2023-03-20T16:12:22.400Z,8.40
2023-03-20T16:14:52.544Z,7.40
2023-03-20T16:17:23.816Z,6.93
2023-03-20T16:19:52.657Z,6.93
2023-03-20T16:22:25.839Z,7.20
2023-03-20T16:25:00.128Z,6.80
2023-03-20T16:27:31.393Z,6.40
2023-03-20T16:30:00.701Z,6.90
2023-03-20T16:32:35.817Z,6.77
2023-03-20T16:35:09.054Z,6.60
2023-03-20T16:37:44.442Z,7.40
2023-03-20T16:40:21.586Z,6.83
2023-03-20T16:42:54.904Z,7.03
2023-03-20T16:45:30.392Z,7.07
2023-03-20T16:48:32.933Z,6.83
2023-03-20T16:51:04.366Z,7.57
2023-03-20T16:53:41.504Z,7.93
2023-03-20T16:56:15.969Z,7.60
2023-03-20T16:58:46.951Z,7.00
2023-03-20T17:01:21.395Z,7.20
2023-03-20T17:04:20.060Z,6.50
2023-03-20T17:06:50.717Z,6.73
2023-03-20T17:10:12.822Z,6.80
2023-03-20T17:12:44.038Z,6.63
2023-03-20T17:15:16.584Z,7.47
2023-03-20T17:17:45.698Z,7.47
2023-03-20T17:20:20.790Z,7.27
2023-03-20T17:22:49.483Z,7.27
2023-03-20T17:25:18.602Z,7.03
2023-03-20T17:27:48.800Z,7.00
2023-03-20T17:30:19.732Z,7.97
2023-03-20T17:32:48.646Z,7.33
2023-03-20T17:35:17.394Z,6.63
2023-03-20T17:37:45.962Z,7.00
2023-03-20T17:40:21.362Z,7.60
2023-03-20T17:42:51.535Z,7.60
2023-03-20T17:45:21.216Z,7.63
2023-03-20T17:47:51.702Z,7.10
2023-03-20T17:50:21.352Z,7.80
2023-03-20T17:52:49.991Z,8.00
2023-03-20T17:55:18.853Z,7.93
2023-03-20T17:57:48.795Z,7.33
2023-03-20T18:00:21.379Z,7.50
2023-03-20T18:02:51.322Z,6.77
2023-03-20T18:05:22.140Z,7.03
2023-03-20T18:07:50.898Z,6.90
2023-03-20T18:10:26.434Z,6.50
2023-03-20T18:12:55.046Z,7.13
2023-03-20T18:15:25.293Z,7.87
2023-03-20T18:17:54.046Z,7.67
2023-03-20T18:20:27.585Z,8.37
2023-03-20T18:22:56.472Z,8.83
2023-03-20T18:25:26.112Z,8.27
2023-03-20T18:27:55.411Z,8.27
2023-03-20T18:30:28.162Z,7.83
2023-03-20T18:32:56.888Z,9.23
2023-03-20T18:35:25.558Z,8.30
2023-03-20T18:37:54.213Z,9.40
2023-03-20T18:40:26.209Z,8.60
2023-03-20T18:42:55.507Z,8.80
2023-03-20T18:45:27.189Z,8.60
2023-03-20T18:47:56.906Z,8.27
2023-03-20T18:50:27.543Z,8.50
2023-03-20T18:52:57.792Z,7.90
2023-03-20T18:55:28.565Z,8.70
2023-03-20T18:57:57.871Z,8.87
2023-03-20T19:00:30.035Z,8.60
2023-03-20T19:02:59.189Z,8.63
2023-03-20T19:05:29.549Z,8.10
2023-03-20T19:07:59.852Z,8.73
2023-03-20T19:10:30.809Z,8.60
2023-03-20T19:12:59.677Z,8.00
2023-03-20T19:15:35.569Z,8.67
2023-03-20T19:18:05.695Z,8.40
2023-03-20T19:20:36.850Z,9.50
2023-03-20T19:23:07.252Z,8.67
2023-03-20T19:25:37.172Z,8.97
2023-03-20T19:28:37.002Z,8.40
2023-03-20T19:31:08.076Z,9.80
2023-03-20T19:33:37.140Z,10.70
2023-03-20T19:36:07.374Z,10.90
2023-03-20T19:38:37.193Z,11.40
2023-03-20T19:41:06.554Z,10.53
2023-03-20T19:43:51.482Z,10.53
2023-03-20T19:46:38.046Z,10.47
2023-03-20T19:49:08.193Z,10.90
2023-03-20T19:51:36.832Z,11.80
2023-03-20T19:54:05.620Z,11.17
2023-03-20T19:56:34.764Z,11.13
2023-03-20T19:59:05.973Z,10.40
2023-03-20T20:01:34.569Z,10.63
2023-03-20T20:04:03.311Z,10.47
2023-03-20T20:06:33.121Z,10.40
2023-03-20T20:09:03.187Z,10.27
2023-03-20T20:11:31.793Z,9.80
2023-03-20T20:14:09.371Z,10.77
2023-03-20T20:16:42.581Z,10.13
2023-03-20T20:19:11.543Z,10.17
2023-03-20T20:24:29.088Z,10.77
2023-03-20T20:27:19.352Z,9.87
2023-03-20T20:29:49.214Z,10.17
2023-03-20T20:32:21.170Z,10.57
2023-03-20T20:38:28.229Z,10.37
2023-03-20T20:40:31.094Z,9.70
2023-03-20T20:43:02.529Z,9.77
2023-03-20T20:45:32.715Z,9.10
2023-03-20T20:48:04.179Z,9.80
2023-03-20T20:50:36.015Z,9.40
2023-03-20T20:53:05.372Z,9.40
2023-03-20T20:55:33.974Z,9.03
2023-03-20T20:58:04.079Z,8.90
2023-03-20T21:00:48.452Z,8.47
2023-03-20T21:03:20.141Z,9.03
2023-03-20T21:05:48.879Z,9.80
2023-03-20T21:08:18.877Z,7.60
2023-03-20T21:10:47.983Z,8.33
2023-03-20T21:13:16.662Z,7.30
2023-03-20T21:15:46.637Z,6.80
2023-03-20T21:18:15.476Z,6.90
2023-03-20T21:20:45.566Z,7.07
2023-03-20T21:23:14.078Z,6.30
2023-03-20T21:25:46.848Z,5.60
2023-03-20T21:28:16.155Z,5.73
2023-03-20T21:31:09.010Z,6.37
2023-03-20T21:33:34.169Z,5.53
2023-03-20T21:36:04.619Z,6.07
2023-03-20T21:41:23.391Z,5.20
2023-03-20T21:43:52.568Z,5.17
2023-03-20T21:55:37.034Z,5.07
2023-03-20T22:03:33.856Z,5.00
2023-03-20T22:09:45.682Z,5.03
2023-03-20T22:15:19.982Z,4.67
2023-03-20T22:18:06.002Z,4.93
2023-03-20T22:34:54.317Z,5.20
2023-03-20T22:37:58.456Z,5.47
2023-03-20T22:41:02.787Z,8.53
2023-03-20T22:43:31.824Z,8.43
2023-03-20T22:46:03.317Z,8.90
2023-03-20T22:48:34.431Z,8.17
2023-03-20T22:51:36.907Z,8.47
2023-03-20T22:54:09.638Z,8.23
2023-03-20T22:56:38.285Z,8.10
2023-03-20T22:59:08.397Z,8.77
2023-03-20T23:01:37.005Z,9.23
2023-03-20T23:04:05.568Z,8.93
2023-03-20T23:06:34.196Z,9.07
2023-03-20T23:09:09.018Z,8.67
2023-03-20T23:11:43.378Z,7.90
2023-03-20T23:14:21.161Z,8.40
2023-03-20T23:16:50.620Z,8.30
2023-03-20T23:19:19.211Z,7.77
2023-03-20T23:21:47.942Z,8.00
2023-03-20T23:24:17.050Z,7.77
2023-03-20T23:26:45.741Z,7.10
2023-03-20T23:29:15.778Z,7.00
2023-03-20T23:31:44.597Z,7.03
2023-03-20T23:34:13.313Z,7.60
2023-03-20T23:36:42.607Z,8.33
2023-03-20T23:39:14.285Z,7.90
2023-03-20T23:42:29.358Z,8.77
2023-03-20T23:44:35.010Z,8.23
2023-03-20T23:47:17.859Z,8.93
2023-03-20T23:49:48.657Z,8.30
2023-03-20T23:52:17.460Z,5.97
2023-03-20T23:54:46.189Z,7.43
2023-03-20T23:57:14.954Z,6.67
2023-03-20T23:59:45.215Z,6.77
